sensor_id;sensor_type;location;lat;lon;timestamp;pressure;altitude;pressure_sealevel;temperature;humidity
36242;BME280;22283;42.748;12.732;2024-01-15T00:02:44;97127.63;;;8.96;100.00
36242;BME280;22283;42.748;12.732;2024-01-15T00:07:45;97120.41;;;8.98;100.00
36242;BME280;22283;42.748;12.732;2024-01-15T00:12:45;97120.66;;;8.95;100.00
36242;BME280;22283;42.748;12.732;2024-01-15T00:17:46;97102.34;;;8.93;100.00
36242;BME280;22283;42.748;12.732;2024-01-15T00:22:47;97086.94;;;8.98;100.00
36242;BME280;22283;42.748;12.732;2024-01-15T00:27:47;97070.19;;;8.99;100.00
36242;BME280;22283;42.748;12.732;2024-01-15T00:32:48;97078.94;;;9.00;100.00
36242;BME280;22283;42.748;12.732;2024-01-15T00:37:49;97058.50;;;9.02;100.00
36242;BME280;22283;42.748;12.732;2024-01-15T00:42:50;97054.22;;;9.01;100.00
36242;BME280;22283;42.748;12.732;2024-01-15T00:47:51;97043.22;;;8.96;100.00
36242;BME280;22283;42.748;12.732;2024-01-15T00:52:51;97040.56;;;8.96;100.00
36242;BME280;22283;42.748;12.732;2024-01-15T00:57:52;97036.38;;;8.93;100.00
36242;BME280;22283;42.748;12.732;2024-01-15T01:02:52;97032.19;;;8.91;100.00
36242;BME280;22283;42.748;12.732;2024-01-15T01:07:53;97028.63;;;8.92;100.00
36242;BME280;22283;42.748;12.732;2024-01-15T01:12:54;97003.19;;;8.91;100.00
36242;BME280;22283;42.748;12.732;2024-01-15T01:17:54;97002.50;;;8.89;100.00
36242;BME280;22283;42.748;12.732;2024-01-15T01:22:55;97006.09;;;8.88;100.00
36242;BME280;22283;42.748;12.732;2024-01-15T01:27:56;97007.75;;;8.89;100.00
36242;BME280;22283;42.748;12.732;2024-01-15T01:32:56;97011.38;;;8.88;100.00
36242;BME280;22283;42.748;12.732;2024-01-15T01:37:57;97018.31;;;8.89;100.00
36242;BME280;22283;42.748;12.732;2024-01-15T01:42:57;97000.09;;;8.85;100.00
36242;BME280;22283;42.748;12.732;2024-01-15T01:47:59;96993.84;;;8.86;100.00
36242;BME280;22283;42.748;12.732;2024-01-15T01:53:01;96982.63;;;8.84;100.00
36242;BME280;22283;42.748;12.732;2024-01-15T01:58:04;96956.66;;;8.90;100.00
36242;BME280;22283;42.748;12.732;2024-01-15T02:03:05;96953.34;;;8.88;100.00
36242;BME280;22283;42.748;12.732;2024-01-15T02:08:06;96939.19;;;8.89;100.00
36242;BME280;22283;42.748;12.732;2024-01-15T02:13:06;96923.63;;;8.85;100.00
36242;BME280;22283;42.748;12.732;2024-01-15T02:18:08;96919.13;;;8.76;100.00
36242;BME280;22283;42.748;12.732;2024-01-15T02:23:10;96915.09;;;8.72;100.00
36242;BME280;22283;42.748;12.732;2024-01-15T02:28:13;96919.63;;;8.70;100.00
36242;BME280;22283;42.748;12.732;2024-01-15T02:33:14;96915.19;;;8.71;100.00
36242;BME280;22283;42.748;12.732;2024-01-15T02:38:15;96900.25;;;8.71;100.00
36242;BME280;22283;42.748;12.732;2024-01-15T02:43:15;96900.25;;;8.71;100.00
36242;BME280;22283;42.748;12.732;2024-01-15T02:48:16;96882.47;;;8.73;100.00
36242;BME280;22283;42.748;12.732;2024-01-15T02:53:16;96874.16;;;8.78;100.00
36242;BME280;22283;42.748;12.732;2024-01-15T02:58:17;96875.28;;;8.75;100.00
36242;BME280;22283;42.748;12.732;2024-01-15T03:03:18;96862.59;;;8.69;100.00
36242;BME280;22283;42.748;12.732;2024-01-15T03:08:19;96853.47;;;8.73;100.00
36242;BME280;22283;42.748;12.732;2024-01-15T03:13:19;96852.44;;;8.65;100.00
36242;BME280;22283;42.748;12.732;2024-01-15T03:18:20;96857.72;;;8.65;100.00
36242;BME280;22283;42.748;12.732;2024-01-15T03:23:20;96852.19;;;8.68;100.00
36242;BME280;22283;42.748;12.732;2024-01-15T03:28:21;96848.91;;;8.75;100.00
36242;BME280;22283;42.748;12.732;2024-01-15T03:33:22;96861.63;;;8.70;100.00
36242;BME280;22283;42.748;12.732;2024-01-15T03:38:23;96841.94;;;8.74;100.00
36242;BME280;22283;42.748;12.732;2024-01-15T03:43:23;96831.94;;;8.68;100.00
36242;BME280;22283;42.748;12.732;2024-01-15T03:48:24;96819.44;;;8.70;100.00
36242;BME280;22283;42.748;12.732;2024-01-15T03:53:25;96826.28;;;8.82;100.00
36242;BME280;22283;42.748;12.732;2024-01-15T03:58:25;96818.38;;;8.82;100.00
36242;BME280;22283;42.748;12.732;2024-01-15T04:03:26;96819.50;;;8.90;100.00
36242;BME280;22283;42.748;12.732;2024-01-15T04:08:27;96803.69;;;8.90;100.00
36242;BME280;22283;42.748;12.732;2024-01-15T04:13:28;96798.72;;;8.96;100.00
36242;BME280;22283;42.748;12.732;2024-01-15T04:18:29;96804.56;;;9.00;100.00
36242;BME280;22283;42.748;12.732;2024-01-15T04:23:29;96806.53;;;9.07;100.00
36242;BME280;22283;42.748;12.732;2024-01-15T04:28:30;96803.47;;;9.12;100.00
36242;BME280;22283;42.748;12.732;2024-01-15T04:33:31;96798.47;;;9.09;100.00
36242;BME280;22283;42.748;12.732;2024-01-15T04:38:31;96810.13;;;9.06;100.00
36242;BME280;22283;42.748;12.732;2024-01-15T04:43:33;96813.06;;;9.03;100.00
36242;BME280;22283;42.748;12.732;2024-01-15T04:48:34;96793.44;;;8.96;100.00
36242;BME280;22283;42.748;12.732;2024-01-15T04:53:35;96784.53;;;8.88;100.00
36242;BME280;22283;42.748;12.732;2024-01-15T04:58:36;96787.59;;;8.93;100.00
36242;BME280;22283;42.748;12.732;2024-01-15T05:03:37;96786.47;;;8.85;100.00
36242;BME280;22283;42.748;12.732;2024-01-15T05:08:37;96787.88;;;8.90;100.00
36242;BME280;22283;42.748;12.732;2024-01-15T05:13:38;96781.22;;;8.95;100.00
36242;BME280;22283;42.748;12.732;2024-01-15T05:18:38;96779.44;;;8.96;100.00
36242;BME280;22283;42.748;12.732;2024-01-15T05:23:39;96760.25;;;8.94;100.00
36242;BME280;22283;42.748;12.732;2024-01-15T05:28:43;96770.53;;;8.97;100.00
36242;BME280;22283;42.748;12.732;2024-01-15T05:33:43;96770.38;;;8.98;100.00
36242;BME280;22283;42.748;12.732;2024-01-15T05:38:44;96755.13;;;9.02;100.00
36242;BME280;22283;42.748;12.732;2024-01-15T05:43:44;96749.44;;;8.97;100.00
36242;BME280;22283;42.748;12.732;2024-01-15T05:48:45;96736.81;;;9.10;100.00
36242;BME280;22283;42.748;12.732;2024-01-15T05:53:46;96734.47;;;9.07;100.00
36242;BME280;22283;42.748;12.732;2024-01-15T05:58:47;96737.63;;;9.01;100.00
36242;BME280;22283;42.748;12.732;2024-01-15T06:03:47;96729.59;;;9.12;100.00
36242;BME280;22283;42.748;12.732;2024-01-15T06:08:48;96721.53;;;9.14;100.00
36242;BME280;22283;42.748;12.732;2024-01-15T06:13:49;96703.75;;;9.06;100.00
36242;BME280;22283;42.748;12.732;2024-01-15T06:18:50;96685.84;;;9.00;100.00
36242;BME280;22283;42.748;12.732;2024-01-15T06:23:50;96676.44;;;9.07;100.00
36242;BME280;22283;42.748;12.732;2024-01-15T06:28:51;96677.25;;;9.17;100.00
36242;BME280;22283;42.748;12.732;2024-01-15T06:33:51;96682.66;;;9.25;100.00
36242;BME280;22283;42.748;12.732;2024-01-15T06:38:52;96676.41;;;9.26;100.00
36242;BME280;22283;42.748;12.732;2024-01-15T06:43:53;96680.44;;;9.30;100.00
36242;BME280;22283;42.748;12.732;2024-01-15T06:48:54;96699.06;;;9.39;100.00
36242;BME280;22283;42.748;12.732;2024-01-15T06:53:55;96692.53;;;9.43;100.00
36242;BME280;22283;42.748;12.732;2024-01-15T06:58:56;96700.28;;;9.54;100.00
36242;BME280;22283;42.748;12.732;2024-01-15T07:03:57;96724.06;;;9.64;100.00
36242;BME280;22283;42.748;12.732;2024-01-15T07:08:57;96712.63;;;9.73;100.00
36242;BME280;22283;42.748;12.732;2024-01-15T07:13:58;96720.94;;;9.78;100.00
36242;BME280;22283;42.748;12.732;2024-01-15T07:18:59;96727.91;;;9.89;100.00
36242;BME280;22283;42.748;12.732;2024-01-15T07:23:59;96722.06;;;9.95;100.00
36242;BME280;22283;42.748;12.732;2024-01-15T07:29:00;96738.16;;;10.01;100.00
36242;BME280;22283;42.748;12.732;2024-01-15T07:34:01;96739.13;;;10.10;100.00
36242;BME280;22283;42.748;12.732;2024-01-15T07:39:01;96735.91;;;10.16;100.00
36242;BME280;22283;42.748;12.732;2024-01-15T07:44:02;96715.75;;;10.15;100.00
36242;BME280;22283;42.748;12.732;2024-01-15T07:49:03;96748.97;;;10.27;100.00
36242;BME280;22283;42.748;12.732;2024-01-15T07:54:06;96753.38;;;10.37;100.00
36242;BME280;22283;42.748;12.732;2024-01-15T07:59:07;96750.56;;;10.48;100.00
36242;BME280;22283;42.748;12.732;2024-01-15T08:04:08;96755.28;;;10.54;100.00
36242;BME280;22283;42.748;12.732;2024-01-15T08:09:09;96765.28;;;10.60;100.00
36242;BME280;22283;42.748;12.732;2024-01-15T08:14:10;96768.84;;;10.69;100.00
36242;BME280;22283;42.748;12.732;2024-01-15T08:19:11;96781.34;;;10.76;100.00
36242;BME280;22283;42.748;12.732;2024-01-15T08:24:12;96777.09;;;10.93;100.00
36242;BME280;22283;42.748;12.732;2024-01-15T08:29:13;96776.94;;;10.95;100.00
36242;BME280;22283;42.748;12.732;2024-01-15T08:34:13;96772.75;;;11.02;100.00
36242;BME280;22283;42.748;12.732;2024-01-15T08:39:14;96769.19;;;11.11;100.00
36242;BME280;22283;42.748;12.732;2024-01-15T08:44:14;96767.72;;;11.26;100.00
36242;BME280;22283;42.748;12.732;2024-01-15T08:49:15;96795.34;;;11.42;100.00
36242;BME280;22283;42.748;12.732;2024-01-15T08:54:16;96794.44;;;11.51;100.00
36242;BME280;22283;42.748;12.732;2024-01-15T08:59:16;96795.56;;;11.66;100.00
36242;BME280;22283;42.748;12.732;2024-01-15T09:04:18;96806.13;;;11.76;100.00
36242;BME280;22283;42.748;12.732;2024-01-15T09:09:18;96820.03;;;11.78;100.00
36242;BME280;22283;42.748;12.732;2024-01-15T09:14:19;96823.38;;;11.80;100.00
36242;BME280;22283;42.748;12.732;2024-01-15T09:19:21;96826.84;;;11.80;100.00
36242;BME280;22283;42.748;12.732;2024-01-15T09:24:21;96816.47;;;11.69;100.00
36242;BME280;22283;42.748;12.732;2024-01-15T09:29:22;96810.47;;;11.67;100.00
36242;BME280;22283;42.748;12.732;2024-01-15T09:34:24;96807.59;;;11.78;100.00
36242;BME280;22283;42.748;12.732;2024-01-15T09:39:24;96819.50;;;12.10;99.49
36242;BME280;22283;42.748;12.732;2024-01-15T09:44:25;96816.06;;;12.36;95.64
36242;BME280;22283;42.748;12.732;2024-01-15T09:49:27;96815.03;;;12.63;93.56
36242;BME280;22283;42.748;12.732;2024-01-15T09:54:27;96816.81;;;12.80;90.46
36242;BME280;22283;42.748;12.732;2024-01-15T09:59:29;96812.13;;;12.74;90.46
36242;BME280;22283;42.748;12.732;2024-01-15T10:04:30;96796.34;;;12.64;90.95
36242;BME280;22283;42.748;12.732;2024-01-15T10:09:30;96787.69;;;12.62;91.80
36242;BME280;22283;42.748;12.732;2024-01-15T10:14:31;96777.81;;;12.72;90.73
36242;BME280;22283;42.748;12.732;2024-01-15T10:19:33;96779.00;;;12.86;87.29
36242;BME280;22283;42.748;12.732;2024-01-15T10:24:37;96779.22;;;12.93;88.21
36242;BME280;22283;42.748;12.732;2024-01-15T10:29:41;96763.66;;;13.06;89.76
36242;BME280;22283;42.748;12.732;2024-01-15T10:34:42;96766.34;;;13.22;86.33
36242;BME280;22283;42.748;12.732;2024-01-15T10:39:48;96763.13;;;13.45;84.99
36242;BME280;22283;42.748;12.732;2024-01-15T10:44:49;96761.50;;;13.52;84.26
36242;BME280;22283;42.748;12.732;2024-01-15T10:49:50;96742.56;;;13.47;82.37
36242;BME280;22283;42.748;12.732;2024-01-15T10:54:51;96737.06;;;13.48;83.77
36242;BME280;22283;42.748;12.732;2024-01-15T10:59:53;96731.25;;;13.61;83.47
36242;BME280;22283;42.748;12.732;2024-01-15T11:04:54;96728.47;;;13.79;81.89
36242;BME280;22283;42.748;12.732;2024-01-15T11:09:54;96724.16;;;13.78;78.66
36242;BME280;22283;42.748;12.732;2024-01-15T11:15:02;96724.78;;;13.80;79.52
36242;BME280;22283;42.748;12.732;2024-01-15T11:20:09;96726.28;;;13.91;78.77
36242;BME280;22283;42.748;12.732;2024-01-15T11:25:14;96706.16;;;14.05;78.07
36242;BME280;22283;42.748;12.732;2024-01-15T11:30:18;96696.00;;;14.16;76.90
36242;BME280;22283;42.748;12.732;2024-01-15T11:35:22;96675.69;;;14.23;74.58
36242;BME280;22283;42.748;12.732;2024-01-15T11:45:34;96652.00;;;14.53;71.98
36242;BME280;22283;42.748;12.732;2024-01-15T11:50:48;96653.22;;;14.34;72.25
36242;BME280;22283;42.748;12.732;2024-01-15T11:55:52;96657.38;;;14.37;73.11
36242;BME280;22283;42.748;12.732;2024-01-15T12:00:56;96660.22;;;14.35;73.62
36242;BME280;22283;42.748;12.732;2024-01-15T12:05:57;96663.38;;;14.31;73.40
36242;BME280;22283;42.748;12.732;2024-01-15T12:10:59;96649.22;;;14.38;73.47
36242;BME280;22283;42.748;12.732;2024-01-15T12:16:01;96635.88;;;14.46;72.84
36242;BME280;22283;42.748;12.732;2024-01-15T12:21:04;96646.06;;;14.35;74.15
36242;BME280;22283;42.748;12.732;2024-01-15T12:26:04;96636.13;;;14.20;75.04
36242;BME280;22283;42.748;12.732;2024-01-15T12:31:05;96637.47;;;14.16;75.00
36242;BME280;22283;42.748;12.732;2024-01-15T12:36:06;96641.50;;;14.04;75.20
36242;BME280;22283;42.748;12.732;2024-01-15T12:41:06;96643.84;;;14.07;75.59
36242;BME280;22283;42.748;12.732;2024-01-15T12:46:07;96637.00;;;14.05;74.40
36242;BME280;22283;42.748;12.732;2024-01-15T12:51:08;96635.19;;;14.05;75.66
36242;BME280;22283;42.748;12.732;2024-01-15T12:56:09;96627.91;;;13.99;75.94
36242;BME280;22283;42.748;12.732;2024-01-15T13:01:09;96617.88;;;14.09;76.07
36242;BME280;22283;42.748;12.732;2024-01-15T13:06:10;96613.28;;;13.95;74.29
36242;BME280;22283;42.748;12.732;2024-01-15T13:11:11;96602.66;;;13.95;75.27
36242;BME280;22283;42.748;12.732;2024-01-15T13:16:12;96612.31;;;13.88;76.06
36242;BME280;22283;42.748;12.732;2024-01-15T13:21:12;96598.34;;;13.86;75.00
36242;BME280;22283;42.748;12.732;2024-01-15T13:26:13;96612.31;;;13.80;75.77
36242;BME280;22283;42.748;12.732;2024-01-15T13:31:14;96608.53;;;13.74;75.93
36242;BME280;22283;42.748;12.732;2024-01-15T13:36:15;96603.69;;;13.61;75.99
36242;BME280;22283;42.748;12.732;2024-01-15T13:41:16;96595.75;;;13.53;76.53
36242;BME280;22283;42.748;12.732;2024-01-15T13:46:23;96618.84;;;13.44;77.02
36242;BME280;22283;42.748;12.732;2024-01-15T13:51:24;96626.59;;;13.21;77.96
36242;BME280;22283;42.748;12.732;2024-01-15T13:56:24;96615.50;;;13.26;78.34
36242;BME280;22283;42.748;12.732;2024-01-15T14:01:25;96588.28;;;13.48;76.64
36242;BME280;22283;42.748;12.732;2024-01-15T14:06:27;96586.63;;;13.56;76.74
36242;BME280;22283;42.748;12.732;2024-01-15T14:11:28;96584.13;;;13.38;77.65
36242;BME280;22283;42.748;12.732;2024-01-15T14:16:28;96586.13;;;13.11;78.94
36242;BME280;22283;42.748;12.732;2024-01-15T14:21:29;96597.88;;;12.92;79.92
36242;BME280;22283;42.748;12.732;2024-01-15T14:26:32;96602.03;;;12.95;80.41
36242;BME280;22283;42.748;12.732;2024-01-15T14:31:33;96594.03;;;12.87;80.87
36242;BME280;22283;42.748;12.732;2024-01-15T14:36:35;96594.72;;;12.80;81.68
36242;BME280;22283;42.748;12.732;2024-01-15T14:41:35;96570.00;;;12.72;83.52
36242;BME280;22283;42.748;12.732;2024-01-15T14:46:36;96584.59;;;12.84;83.72
36242;BME280;22283;42.748;12.732;2024-01-15T14:51:36;96587.25;;;12.84;82.14
36242;BME280;22283;42.748;12.732;2024-01-15T14:56:37;96585.91;;;12.72;81.97
36242;BME280;22283;42.748;12.732;2024-01-15T15:01:38;96599.94;;;12.48;83.37
36242;BME280;22283;42.748;12.732;2024-01-15T15:06:40;96617.47;;;12.33;84.23
36242;BME280;22283;42.748;12.732;2024-01-15T15:11:41;96612.94;;;12.17;85.86
36242;BME280;22283;42.748;12.732;2024-01-15T15:16:42;96620.84;;;12.09;86.54
36242;BME280;22283;42.748;12.732;2024-01-15T15:21:42;96604.69;;;11.94;87.93
36242;BME280;22283;42.748;12.732;2024-01-15T15:26:43;96616.59;;;11.72;90.49
36242;BME280;22283;42.748;12.732;2024-01-15T15:31:44;96624.97;;;11.59;93.58
36242;BME280;22283;42.748;12.732;2024-01-15T15:36:45;96628.25;;;11.53;95.99
36242;BME280;22283;42.748;12.732;2024-01-15T15:41:45;96635.88;;;11.56;95.99
36242;BME280;22283;42.748;12.732;2024-01-15T15:46:46;96638.75;;;11.63;96.18
36242;BME280;22283;42.748;12.732;2024-01-15T15:51:46;96641.56;;;11.61;95.78
36242;BME280;22283;42.748;12.732;2024-01-15T15:56:48;96634.53;;;11.52;96.62
36242;BME280;22283;42.748;12.732;2024-01-15T16:01:50;96644.09;;;11.45;97.30
36242;BME280;22283;42.748;12.732;2024-01-15T16:06:51;96653.34;;;11.41;97.73
36242;BME280;22283;42.748;12.732;2024-01-15T16:11:52;96661.50;;;11.29;97.66
36242;BME280;22283;42.748;12.732;2024-01-15T16:16:53;96679.38;;;11.10;97.88
36242;BME280;22283;42.748;12.732;2024-01-15T16:21:58;96668.00;;;10.81;98.23
36242;BME280;22283;42.748;12.732;2024-01-15T16:26:59;96673.16;;;10.55;99.69
36242;BME280;22283;42.748;12.732;2024-01-15T16:32:01;96678.41;;;10.38;100.00
36242;BME280;22283;42.748;12.732;2024-01-15T16:37:03;96696.66;;;10.21;100.00
36242;BME280;22283;42.748;12.732;2024-01-15T16:42:05;96681.28;;;10.07;100.00
36242;BME280;22283;42.748;12.732;2024-01-15T16:47:05;96689.53;;;9.94;100.00
36242;BME280;22283;42.748;12.732;2024-01-15T16:52:06;96688.69;;;9.84;100.00
36242;BME280;22283;42.748;12.732;2024-01-15T16:57:07;96695.69;;;9.75;100.00
36242;BME280;22283;42.748;12.732;2024-01-15T17:02:08;96705.97;;;9.69;100.00
36242;BME280;22283;42.748;12.732;2024-01-15T17:07:08;96700.56;;;9.60;100.00
36242;BME280;22283;42.748;12.732;2024-01-15T17:12:10;96677.09;;;9.48;100.00
36242;BME280;22283;42.748;12.732;2024-01-15T17:17:11;96679.59;;;9.40;100.00
36242;BME280;22283;42.748;12.732;2024-01-15T17:22:13;96671.22;;;9.54;100.00
36242;BME280;22283;42.748;12.732;2024-01-15T17:27:14;96683.03;;;9.69;100.00
36242;BME280;22283;42.748;12.732;2024-01-15T17:32:15;96675.94;;;9.70;100.00
36242;BME280;22283;42.748;12.732;2024-01-15T17:37:15;96678.69;;;9.78;100.00
36242;BME280;22283;42.748;12.732;2024-01-15T17:42:16;96684.38;;;9.93;100.00
36242;BME280;22283;42.748;12.732;2024-01-15T17:47:17;96684.09;;;9.96;100.00
36242;BME280;22283;42.748;12.732;2024-01-15T17:52:18;96685.47;;;10.00;100.00
36242;BME280;22283;42.748;12.732;2024-01-15T17:57:19;96685.06;;;9.95;100.00
36242;BME280;22283;42.748;12.732;2024-01-15T18:02:20;96687.59;;;9.87;100.00
36242;BME280;22283;42.748;12.732;2024-01-15T18:07:21;96694.25;;;9.81;100.00
36242;BME280;22283;42.748;12.732;2024-01-15T18:12:24;96702.34;;;9.79;100.00
36242;BME280;22283;42.748;12.732;2024-01-15T18:17:27;96694.53;;;9.88;100.00
36242;BME280;22283;42.748;12.732;2024-01-15T18:22:28;96700.38;;;9.91;100.00
36242;BME280;22283;42.748;12.732;2024-01-15T18:27:28;96713.16;;;9.96;100.00
36242;BME280;22283;42.748;12.732;2024-01-15T18:32:29;96719.25;;;9.96;100.00
36242;BME280;22283;42.748;12.732;2024-01-15T18:37:30;96727.84;;;10.08;100.00
36242;BME280;22283;42.748;12.732;2024-01-15T18:42:30;96724.75;;;10.22;100.00
36242;BME280;22283;42.748;12.732;2024-01-15T18:47:31;96733.50;;;10.42;100.00
36242;BME280;22283;42.748;12.732;2024-01-15T18:52:31;96741.66;;;10.49;100.00
36242;BME280;22283;42.748;12.732;2024-01-15T18:57:32;96759.97;;;10.60;100.00
36242;BME280;22283;42.748;12.732;2024-01-15T19:02:33;96761.50;;;10.63;100.00
36242;BME280;22283;42.748;12.732;2024-01-15T19:07:33;96770.56;;;10.60;100.00
36242;BME280;22283;42.748;12.732;2024-01-15T19:12:34;96762.81;;;10.49;100.00
36242;BME280;22283;42.748;12.732;2024-01-15T19:17:35;96769.81;;;10.40;100.00
36242;BME280;22283;42.748;12.732;2024-01-15T19:22:35;96781.78;;;10.34;100.00
36242;BME280;22283;42.748;12.732;2024-01-15T19:27:36;96777.34;;;10.35;100.00
36242;BME280;22283;42.748;12.732;2024-01-15T19:32:43;96788.34;;;10.30;100.00
36242;BME280;22283;42.748;12.732;2024-01-15T19:37:44;96779.59;;;10.30;100.00
36242;BME280;22283;42.748;12.732;2024-01-15T19:42:44;96797.63;;;10.44;100.00
36242;BME280;22283;42.748;12.732;2024-01-15T19:47:45;96801.63;;;10.48;100.00
36242;BME280;22283;42.748;12.732;2024-01-15T19:52:47;96812.06;;;10.59;97.32
36242;BME280;22283;42.748;12.732;2024-01-15T19:57:48;96819.25;;;10.67;93.39
36242;BME280;22283;42.748;12.732;2024-01-15T20:02:49;96833.50;;;10.94;89.88
36242;BME280;22283;42.748;12.732;2024-01-15T20:07:50;96832.53;;;10.95;92.59
36242;BME280;22283;42.748;12.732;2024-01-15T20:12:50;96842.72;;;10.90;93.46
36242;BME280;22283;42.748;12.732;2024-01-15T20:17:52;96845.09;;;10.83;94.59
36242;BME280;22283;42.748;12.732;2024-01-15T20:22:55;96847.75;;;10.83;94.97
36242;BME280;22283;42.748;12.732;2024-01-15T20:27:56;96846.91;;;10.82;95.63
36242;BME280;22283;42.748;12.732;2024-01-15T20:32:57;96862.09;;;10.80;97.20
36242;BME280;22283;42.748;12.732;2024-01-15T20:37:57;96856.78;;;10.80;98.14
36242;BME280;22283;42.748;12.732;2024-01-15T20:42:58;96869.34;;;10.78;98.25
36242;BME280;22283;42.748;12.732;2024-01-15T20:47:58;96878.56;;;10.74;100.00
36242;BME280;22283;42.748;12.732;2024-01-15T20:53:00;96872.72;;;10.61;100.00
36242;BME280;22283;42.748;12.732;2024-01-15T20:58:01;96874.97;;;10.56;100.00
36242;BME280;22283;42.748;12.732;2024-01-15T21:03:02;96877.19;;;10.61;100.00
36242;BME280;22283;42.748;12.732;2024-01-15T21:08:03;96873.31;;;10.55;100.00
36242;BME280;22283;42.748;12.732;2024-01-15T21:13:04;96879.00;;;10.60;100.00
36242;BME280;22283;42.748;12.732;2024-01-15T21:18:06;96882.47;;;10.61;100.00
36242;BME280;22283;42.748;12.732;2024-01-15T21:23:07;96886.66;;;10.63;100.00
36242;BME280;22283;42.748;12.732;2024-01-15T21:28:08;96878.72;;;10.63;100.00
36242;BME280;22283;42.748;12.732;2024-01-15T21:33:09;96887.06;;;10.68;100.00
36242;BME280;22283;42.748;12.732;2024-01-15T21:38:11;96887.47;;;10.73;99.74
36242;BME280;22283;42.748;12.732;2024-01-15T21:43:12;96887.16;;;10.76;99.47
36242;BME280;22283;42.748;12.732;2024-01-15T21:48:13;96881.31;;;10.73;100.00
36242;BME280;22283;42.748;12.732;2024-01-15T21:53:14;96886.34;;;10.76;99.90
36242;BME280;22283;42.748;12.732;2024-01-15T21:58:16;96891.78;;;10.74;100.00
36242;BME280;22283;42.748;12.732;2024-01-15T22:03:17;96902.75;;;10.79;100.00
36242;BME280;22283;42.748;12.732;2024-01-15T22:08:18;96886.88;;;10.79;100.00
36242;BME280;22283;42.748;12.732;2024-01-15T22:13:18;96896.19;;;10.83;100.00
36242;BME280;22283;42.748;12.732;2024-01-15T22:18:20;96896.78;;;10.77;100.00
36242;BME280;22283;42.748;12.732;2024-01-15T22:23:20;96905.69;;;10.76;100.00
36242;BME280;22283;42.748;12.732;2024-01-15T22:28:21;96917.97;;;10.77;100.00
36242;BME280;22283;42.748;12.732;2024-01-15T22:33:22;96917.66;;;10.80;100.00
36242;BME280;22283;42.748;12.732;2024-01-15T22:38:22;96919.06;;;10.75;100.00
36242;BME280;22283;42.748;12.732;2024-01-15T22:43:23;96924.50;;;10.73;100.00
36242;BME280;22283;42.748;12.732;2024-01-15T22:48:24;96937.75;;;10.73;100.00
36242;BME280;22283;42.748;12.732;2024-01-15T22:53:25;96934.53;;;10.70;100.00
36242;BME280;22283;42.748;12.732;2024-01-15T22:58:26;96933.41;;;10.72;100.00
36242;BME280;22283;42.748;12.732;2024-01-15T23:03:27;96934.38;;;10.71;100.00
36242;BME280;22283;42.748;12.732;2024-01-15T23:08:28;96933.72;;;10.69;100.00
36242;BME280;22283;42.748;12.732;2024-01-15T23:13:29;96942.31;;;10.71;100.00
36242;BME280;22283;42.748;12.732;2024-01-15T23:18:30;96943.44;;;10.78;100.00
36242;BME280;22283;42.748;12.732;2024-01-15T23:23:31;96944.69;;;10.74;100.00
36242;BME280;22283;42.748;12.732;2024-01-15T23:28:32;96933.72;;;10.69;100.00
36242;BME280;22283;42.748;12.732;2024-01-15T23:33:33;96960.56;;;10.74;100.00
36242;BME280;22283;42.748;12.732;2024-01-15T23:38:33;96953.31;;;10.76;100.00
36242;BME280;22283;42.748;12.732;2024-01-15T23:43:38;96957.91;;;10.74;100.00
36242;BME280;22283;42.748;12.732;2024-01-15T23:48:39;96965.84;;;10.74;100.00
36242;BME280;22283;42.748;12.732;2024-01-15T23:53:40;96962.78;;;10.79;99.62
36242;BME280;22283;42.748;12.732;2024-01-15T23:58:41;96976.03;;;10.69;99.90
